Time;durP1;ratioP1;P1;durP2;ratioP2;P2;SDS_P1;SDS_P2;PMS_P1;PMS_P2;Temp;Humidity;BMP_temperature;BMP_pressure;BME280_temperature;BME280_humidity;BME280_pressure;Samples;Min_cycle;Max_cycle;Signal;HPM_P1;HPM_P2
2021/09/17 00:02:06;;;;;;;20.07;13.57;;;13.30;1.00;;;;;;5035091;28;20752;-60
2021/09/17 00:04:33;;;;;;;20.33;14.07;;;13.30;1.00;;;;;;5034970;28;20617;-59
2021/09/17 00:07:00;;;;;;;16.97;13.77;;;13.30;1.00;;;;;;5035382;28;20238;-61
2021/09/17 00:09:28;;;;;;;22.43;14.57;;;13.30;1.00;;;;;;5035312;28;20360;-61
2021/09/17 00:11:55;;;;;;;21.40;14.90;;;13.30;1.00;;;;;;5035163;28;20287;-61
2021/09/17 00:14:21;;;;;;;23.03;15.27;;;13.30;1.00;;;;;;5035248;28;20271;-59
2021/09/17 00:16:48;;;;;;;25.67;16.10;;;13.20;1.00;;;;;;5034742;28;20230;-61
2021/09/17 00:19:15;;;;;;;22.00;15.67;;;13.20;1.00;;;;;;5034720;28;20268;-60
2021/09/17 00:21:41;;;;;;;24.17;16.80;;;13.20;1.00;;;;;;5035184;28;20206;-59
2021/09/17 00:24:08;;;;;;;26.70;17.93;;;13.20;1.00;;;;;;5035123;28;20264;-60
2021/09/17 00:26:36;;;;;;;24.40;17.60;;;13.10;1.00;;;;;;5034747;28;20233;-61
2021/09/17 00:29:03;;;;;;;26.33;18.23;;;13.10;1.00;;;;;;5034797;28;20217;-61
2021/09/17 00:31:29;;;;;;;28.10;18.50;;;13.10;1.00;;;;;;5034682;28;20267;-59
2021/09/17 00:33:56;;;;;;;27.77;19.43;;;13.10;27.40;;;;;;5034715;28;20209;-60
2021/09/17 00:36:22;;;;;;;31.63;20.17;;;13.10;40.30;;;;;;5034762;28;20675;-61
2021/09/17 00:38:49;;;;;;;32.17;21.97;;;13.10;60.70;;;;;;5034779;28;20213;-62
2021/09/17 00:41:16;;;;;;;35.77;23.00;;;13.20;75.90;;;;;;5034675;28;20206;-61
2021/09/17 00:43:44;;;;;;;33.63;23.80;;;13.20;93.60;;;;;;5034520;28;20245;-60
2021/09/17 00:46:10;;;;;;;34.03;23.23;;;13.20;99.90;;;;;;5034418;28;20256;-59
2021/09/17 00:48:37;;;;;;;33.80;23.13;;;13.30;99.90;;;;;;5034457;28;20218;-60
2021/09/17 00:51:04;;;;;;;32.43;22.67;;;13.30;99.90;;;;;;5034157;28;20736;-61
2021/09/17 00:53:33;;;;;;;36.33;24.33;;;13.40;99.90;;;;;;5034541;28;20292;-59
2021/09/17 00:56:00;;;;;;;35.43;24.73;;;13.40;99.90;;;;;;5034117;28;20228;-61
2021/09/17 00:58:27;;;;;;;40.03;26.60;;;13.40;99.90;;;;;;5034179;28;20710;-60
2021/09/17 01:00:55;;;;;;;38.97;27.07;;;13.40;99.90;;;;;;5033729;28;20218;-59
2021/09/17 01:03:22;;;;;;;37.03;26.17;;;13.40;99.90;;;;;;5034011;28;20276;-59
2021/09/17 01:05:49;;;;;;;39.63;27.37;;;13.50;99.90;;;;;;5033459;28;20226;-61
2021/09/17 01:08:16;;;;;;;37.77;27.80;;;13.50;99.90;;;;;;5034179;28;20206;-60
2021/09/17 01:10:43;;;;;;;45.53;29.37;;;13.50;99.90;;;;;;5034006;28;20264;-61
2021/09/17 01:13:10;;;;;;;42.17;27.60;;;13.50;99.90;;;;;;5034045;28;20313;-61
2021/09/17 01:15:37;;;;;;;39.30;26.90;;;13.50;99.90;;;;;;5033731;28;20264;-58
2021/09/17 01:18:05;;;;;;;43.57;28.57;;;13.60;99.90;;;;;;5034357;28;20237;-60
2021/09/17 01:20:31;;;;;;;42.40;28.80;;;13.50;99.90;;;;;;5034252;28;20207;-59
2021/09/17 01:22:59;;;;;;;43.03;29.03;;;13.60;99.90;;;;;;5034179;28;20268;-61
2021/09/17 01:25:26;;;;;;;45.07;29.10;;;13.60;99.90;;;;;;5033895;28;20729;-61
2021/09/17 01:27:54;;;;;;;45.93;29.93;;;13.60;99.90;;;;;;5033623;28;20260;-61
2021/09/17 01:30:21;;;;;;;46.33;30.67;;;13.60;97.10;;;;;;5033644;28;20240;-62
2021/09/17 01:32:49;;;;;;;43.87;30.73;;;13.70;83.20;;;;;;5033591;28;20280;-61
2021/09/17 01:35:17;;;;;;;54.03;32.37;;;13.70;71.20;;;;;;5033470;28;20265;-61
2021/09/17 01:37:45;;;;;;;47.63;30.90;;;13.70;59.60;;;;;;5033423;28;20222;-62
2021/09/17 01:40:15;;;;;;;49.00;31.27;;;13.70;49.70;;;;;;5033311;28;20206;-61
2021/09/17 01:42:42;;;;;;;47.40;32.83;;;13.70;37.30;;;;;;5033021;28;20720;-62
2021/09/17 01:45:10;;;;;;;53.30;33.00;;;13.70;23.60;;;;;;5033218;28;20663;-61
2021/09/17 01:47:37;;;;;;;49.40;31.47;;;13.70;19.50;;;;;;5033336;28;20272;-61
2021/09/17 01:50:05;;;;;;;49.70;33.20;;;13.70;14.30;;;;;;5033551;28;20206;-61
2021/09/17 01:52:31;;;;;;;49.67;34.07;;;13.70;13.90;;;;;;5033005;28;20226;-61
2021/09/17 01:54:58;;;;;;;56.17;34.53;;;13.80;14.40;;;;;;5032936;28;20264;-62
2021/09/17 01:57:26;;;;;;;52.60;34.87;;;13.70;12.10;;;;;;5033143;28;20237;-61
2021/09/17 01:59:53;;;;;;;50.87;33.50;;;13.70;10.80;;;;;;5033020;28;20237;-60
2021/09/17 02:02:20;;;;;;;53.77;34.57;;;13.80;6.40;;;;;;5033175;28;20257;-61
2021/09/17 02:04:46;;;;;;;53.27;34.30;;;13.80;1.00;;;;;;5032892;28;20649;-61
2021/09/17 02:07:13;;;;;;;54.57;35.13;;;13.80;1.00;;;;;;5032851;28;20230;-61
2021/09/17 02:09:40;;;;;;;56.07;36.77;;;13.80;1.00;;;;;;5032639;28;20210;-61
2021/09/17 02:12:07;;;;;;;53.67;35.13;;;13.80;1.00;;;;;;5032650;28;20310;-60
2021/09/17 02:14:35;;;;;;;58.70;35.97;;;13.80;1.00;;;;;;5032731;28;20260;-61
2021/09/17 02:17:01;;;;;;;52.60;33.60;;;13.90;1.00;;;;;;5032862;28;20226;-61
2021/09/17 02:19:28;;;;;;;55.97;37.17;;;13.90;1.00;;;;;;5032796;28;20206;-61
2021/09/17 02:21:55;;;;;;;58.40;35.77;;;13.90;1.00;;;;;;5032559;28;20206;-59
2021/09/17 02:24:22;;;;;;;54.80;37.20;;;14.00;1.00;;;;;;5032556;28;20206;-61
2021/09/17 02:26:49;;;;;;;57.47;35.23;;;13.90;1.00;;;;;;5032524;28;20652;-62
2021/09/17 02:29:15;;;;;;;53.63;36.13;;;13.90;1.00;;;;;;5032540;28;20267;-61
2021/09/17 02:31:44;;;;;;;57.73;38.30;;;14.00;1.00;;;;;;5032466;28;20206;-61
2021/09/17 02:34:10;;;;;;;57.97;36.20;;;14.00;1.00;;;;;;5032380;28;20225;-62
2021/09/17 02:36:37;;;;;;;58.10;37.73;;;14.00;1.00;;;;;;5032012;28;20230;-61
2021/09/17 02:39:04;;;;;;;60.03;38.23;;;14.00;1.00;;;;;;5032356;28;20329;-60
2021/09/17 02:41:31;;;;;;;58.47;38.23;;;14.00;1.00;;;;;;5032233;28;20605;-61
2021/09/17 02:43:57;;;;;;;57.23;36.30;;;14.00;1.00;;;;;;5032209;28;20237;-62
2021/09/17 02:46:25;;;;;;;60.33;38.63;;;14.00;1.00;;;;;;5032193;28;20232;-61
2021/09/17 02:48:53;;;;;;;59.90;39.43;;;14.00;1.00;;;;;;5032575;28;20214;-60
2021/09/17 02:51:20;;;;;;;61.17;39.13;;;14.00;1.00;;;;;;5032045;28;20210;-59
2021/09/17 02:53:46;;;;;;;63.13;41.03;;;14.00;1.00;;;;;;5032069;28;20713;-61
2021/09/17 02:56:13;;;;;;;60.97;41.83;;;14.10;1.00;;;;;;5032245;28;20276;-61
2021/09/17 02:58:39;;;;;;;61.13;39.00;;;14.10;1.00;;;;;;5032122;28;20260;-61
2021/09/17 03:01:06;;;;;;;66.10;40.50;;;14.10;1.00;;;;;;5032310;28;20221;-61
2021/09/17 03:03:33;;;;;;;64.33;41.23;;;14.10;1.00;;;;;;5032040;28;20240;-61
2021/09/17 03:06:01;;;;;;;60.77;40.30;;;14.20;1.00;;;;;;5031741;28;20646;-62
2021/09/17 03:08:27;;;;;;;64.60;41.33;;;14.20;1.00;;;;;;5032254;28;20613;-61
2021/09/17 03:10:57;;;;;;;62.87;41.13;;;14.10;1.00;;;;;;5032177;28;20284;-60
2021/09/17 03:13:24;;;;;;;73.13;42.43;;;14.10;1.00;;;;;;5031924;28;20609;-60
2021/09/17 03:15:50;;;;;;;62.37;39.07;;;14.10;1.00;;;;;;5031643;28;20230;-61
2021/09/17 03:18:17;;;;;;;66.50;41.13;;;14.10;1.00;;;;;;5031697;28;20256;-61
2021/09/17 03:20:44;;;;;;;67.73;41.73;;;14.10;1.00;;;;;;5031806;28;20322;-60
2021/09/17 03:23:12;;;;;;;69.50;42.13;;;14.10;1.00;;;;;;5030698;28;20207;-61
2021/09/17 03:25:39;;;;;;;61.87;40.73;;;14.10;1.00;;;;;;5031326;28;20678;-61
2021/09/17 03:28:06;;;;;;;65.33;41.47;;;14.20;1.00;;;;;;5034152;28;20328;-60
2021/09/17 03:30:34;;;;;;;62.67;39.90;;;14.20;1.00;;;;;;5035043;28;20210;-61
2021/09/17 03:33:00;;;;;;;66.90;40.97;;;14.20;1.00;;;;;;5035934;28;20226;-60
2021/09/17 03:35:27;;;;;;;63.57;40.63;;;14.20;1.00;;;;;;5035352;28;20637;-59
2021/09/17 03:37:54;;;;;;;59.63;39.90;;;14.20;1.00;;;;;;5034556;28;20206;-61
2021/09/17 03:40:22;;;;;;;63.87;41.10;;;14.20;1.00;;;;;;5034548;28;20705;-59
2021/09/17 03:42:49;;;;;;;64.37;40.87;;;14.20;1.00;;;;;;5034933;28;20615;-60
2021/09/17 03:45:15;;;;;;;62.30;40.00;;;14.20;1.00;;;;;;5035294;28;20301;-61
2021/09/17 03:47:42;;;;;;;66.27;41.27;;;14.20;1.00;;;;;;5035136;28;20230;-60
2021/09/17 03:50:09;;;;;;;66.97;41.53;;;14.20;1.00;;;;;;5035543;28;20268;-59
2021/09/17 03:52:36;;;;;;;66.23;42.47;;;14.20;1.00;;;;;;5035055;28;20249;-60
2021/09/17 03:55:03;;;;;;;62.20;40.57;;;14.20;1.00;;;;;;5035314;28;20214;-59
2021/09/17 03:57:31;;;;;;;69.10;41.30;;;14.20;1.00;;;;;;5035057;28;20229;-61
2021/09/17 03:59:58;;;;;;;67.67;42.13;;;14.20;1.00;;;;;;5035238;28;20206;-61
2021/09/17 04:02:24;;;;;;;67.03;40.83;;;14.20;1.00;;;;;;5034680;28;20248;-61
2021/09/17 04:04:51;;;;;;;63.63;40.93;;;14.20;1.00;;;;;;5034264;28;20206;-61
2021/09/17 04:07:18;;;;;;;69.57;42.50;;;14.20;1.00;;;;;;5034279;28;20589;-61
2021/09/17 04:09:44;;;;;;;66.30;41.53;;;14.30;1.00;;;;;;5035064;28;20206;-59
2021/09/17 04:12:11;;;;;;;68.33;40.80;;;14.30;1.00;;;;;;5034154;28;20348;-61
2021/09/17 04:14:39;;;;;;;66.43;41.60;;;14.30;1.00;;;;;;5034544;28;20288;-59
2021/09/17 04:17:06;;;;;;;71.30;42.23;;;14.30;1.00;;;;;;5034372;28;20280;-61
2021/09/17 04:19:36;;;;;;;68.80;42.40;;;14.20;1.00;;;;;;5054142;28;20209;-61
2021/09/17 04:22:03;;;;;;;70.43;41.33;;;14.20;1.00;;;;;;5030304;28;20244;-59
2021/09/17 04:24:30;;;;;;;71.90;42.33;;;14.20;1.00;;;;;;5033965;28;20193;-61
2021/09/17 04:26:57;;;;;;;67.13;41.40;;;14.20;1.00;;;;;;5054542;28;20233;-60
2021/09/17 04:29:23;;;;;;;69.93;41.30;;;14.20;1.00;;;;;;5054349;28;20259;-62
2021/09/17 04:31:51;;;;;;;70.17;42.27;;;14.20;1.00;;;;;;5054607;28;20210;-62
2021/09/17 04:34:18;;;;;;;67.53;41.20;;;14.20;1.00;;;;;;5053153;28;20619;-62
2021/09/17 04:36:45;;;;;;;65.83;40.67;;;14.20;1.00;;;;;;5053734;28;20236;-61
2021/09/17 04:39:11;;;;;;;69.87;41.50;;;14.20;1.00;;;;;;5033582;28;20202;-61
2021/09/17 04:41:38;;;;;;;71.60;42.17;;;14.20;1.00;;;;;;5034050;28;20237;-62
2021/09/17 04:44:05;;;;;;;68.70;41.10;;;14.20;1.00;;;;;;5034372;28;20202;-62
2021/09/17 04:46:32;;;;;;;73.63;43.30;;;14.20;1.00;;;;;;5032921;28;20292;-60
2021/09/17 04:48:59;;;;;;;72.60;44.00;;;14.20;1.00;;;;;;5032859;28;20217;-61
2021/09/17 04:51:26;;;;;;;78.53;45.93;;;14.20;1.00;;;;;;5033010;28;20206;-61
2021/09/17 04:53:53;;;;;;;69.37;42.53;;;14.20;1.00;;;;;;5033359;28;20222;-61
2021/09/17 04:56:19;;;;;;;71.43;42.77;;;14.20;1.00;;;;;;5032779;28;20264;-62
2021/09/17 04:58:46;;;;;;;74.93;43.50;;;14.20;1.00;;;;;;5033928;28;20210;-60
2021/09/17 05:01:13;;;;;;;76.77;44.97;;;14.20;1.00;;;;;;5043341;28;20209;-62
2021/09/17 05:03:39;;;;;;;72.90;44.00;;;14.10;1.00;;;;;;5053837;28;20205;-62
2021/09/17 05:06:07;;;;;;;82.73;46.23;;;14.20;1.00;;;;;;5053654;28;20717;-62
2021/09/17 05:08:34;;;;;;;79.63;45.23;;;14.10;1.00;;;;;;5053859;28;20632;-61
2021/09/17 05:11:01;;;;;;;76.70;44.87;;;14.10;1.00;;;;;;5053562;28;20255;-61
2021/09/17 05:13:27;;;;;;;74.87;45.77;;;14.10;1.00;;;;;;5053825;28;20282;-61
2021/09/17 05:15:54;;;;;;;81.23;45.93;;;14.10;1.00;;;;;;5053560;28;20229;-58
2021/09/17 05:18:21;;;;;;;77.23;44.00;;;14.10;1.00;;;;;;5053580;28;20214;-62
2021/09/17 05:20:47;;;;;;;81.10;46.23;;;14.10;1.00;;;;;;5053610;28;20237;-62
2021/09/17 05:23:15;;;;;;;75.40;46.20;;;14.10;1.00;;;;;;5052522;28;20552;-67
2021/09/17 05:25:42;;;;;;;78.17;45.07;;;14.10;1.00;;;;;;5050413;28;20209;-66
2021/09/17 05:28:08;;;;;;;76.57;45.33;;;14.20;1.00;;;;;;5038376;28;20645;-66
2021/09/17 05:30:35;;;;;;;76.10;43.50;;;14.20;1.00;;;;;;5033415;28;20675;-66
2021/09/17 05:33:02;;;;;;;72.77;43.67;;;14.20;1.00;;;;;;5033698;28;20655;-62
2021/09/17 05:35:29;;;;;;;68.37;43.13;;;14.30;1.00;;;;;;5029262;28;20650;-62
2021/09/17 05:37:55;;;;;;;76.37;43.97;;;14.30;1.00;;;;;;5033052;28;20260;-62
2021/09/17 05:40:24;;;;;;;69.73;41.57;;;14.30;1.00;;;;;;5032945;28;20694;-62
2021/09/17 05:42:50;;;;;;;72.03;43.93;;;14.40;1.00;;;;;;5032788;28;20252;-61
2021/09/17 05:45:17;;;;;;;69.33;43.07;;;14.40;1.00;;;;;;5032755;28;20225;-61
2021/09/17 05:47:45;;;;;;;70.63;43.13;;;14.40;1.00;;;;;;5033123;28;20234;-62
2021/09/17 05:50:12;;;;;;;74.53;42.73;;;14.40;1.00;;;;;;5032810;28;20213;-63
2021/09/17 05:52:39;;;;;;;72.13;43.63;;;14.40;1.00;;;;;;5032550;28;20202;-62
2021/09/17 05:55:07;;;;;;;69.40;42.07;;;14.50;1.00;;;;;;5032651;28;20230;-63
2021/09/17 05:57:35;;;;;;;66.77;41.27;;;14.50;1.00;;;;;;5032914;28;20266;-61
2021/09/17 06:00:02;;;;;;;67.50;42.40;;;14.50;1.00;;;;;;5032729;28;20206;-63
2021/09/17 06:02:29;;;;;;;69.87;40.63;;;14.50;1.00;;;;;;5033037;28;20265;-63
2021/09/17 06:04:55;;;;;;;68.27;41.70;;;14.60;1.00;;;;;;5032279;28;20206;-62
2021/09/17 06:07:22;;;;;;;70.73;42.47;;;14.60;1.00;;;;;;5032553;28;20761;-62
2021/09/17 06:09:49;;;;;;;67.57;40.83;;;14.60;1.00;;;;;;5032653;28;20206;-65
2021/09/17 06:12:15;;;;;;;69.17;41.97;;;14.70;1.00;;;;;;5032785;28;20206;-61
2021/09/17 06:14:43;;;;;;;71.77;41.40;;;14.70;1.00;;;;;;5032094;28;20234;-62
2021/09/17 06:17:10;;;;;;;65.23;40.63;;;14.70;1.00;;;;;;5032718;28;20256;-60
2021/09/17 06:19:36;;;;;;;67.63;41.10;;;14.80;1.00;;;;;;5032264;28;20206;-60
2021/09/17 06:22:03;;;;;;;67.63;42.40;;;14.80;1.00;;;;;;5032315;28;20209;-61
2021/09/17 06:24:30;;;;;;;61.77;39.90;;;14.90;1.00;;;;;;5032116;28;20211;-61
2021/09/17 06:26:57;;;;;;;60.13;38.73;;;14.90;99.90;;;;;;5032141;28;20234;-60
2021/09/17 06:29:24;;;;;;;61.53;39.27;;;14.90;99.90;;;;;;5032209;28;20293;-59
2021/09/17 06:31:52;;;;;;;61.40;37.97;;;15.00;99.90;;;;;;5032026;28;20213;-58
2021/09/17 06:34:18;;;;;;;63.47;40.90;;;15.00;99.90;;;;;;5031517;28;20283;-59
2021/09/17 06:36:45;;;;;;;63.97;41.53;;;15.00;99.90;;;;;;5032351;28;20280;-60
2021/09/17 06:39:12;;;;;;;61.43;39.37;;;15.00;99.90;;;;;;5031559;28;20679;-59
2021/09/17 06:41:38;;;;;;;61.50;38.10;;;15.10;99.90;;;;;;5031889;28;20210;-62
2021/09/17 06:44:05;;;;;;;60.63;37.93;;;15.20;99.90;;;;;;5031509;28;20206;-61
2021/09/17 06:46:32;;;;;;;57.00;36.80;;;15.20;99.90;;;;;;5031368;28;20226;-61
2021/09/17 06:49:00;;;;;;;58.87;37.83;;;15.20;99.90;;;;;;5031374;28;20217;-61
2021/09/17 06:51:26;;;;;;;59.00;38.10;;;15.20;99.90;;;;;;5032035;28;20256;-61
2021/09/17 06:53:56;;;;;;;57.33;37.87;;;15.30;99.90;;;;;;5031435;28;20214;-64
2021/09/17 06:56:23;;;;;;;60.63;37.57;;;15.20;99.90;;;;;;5031789;28;20226;-65
2021/09/17 06:58:49;;;;;;;58.53;37.53;;;15.20;59.20;;;;;;5032069;28;20210;-64
2021/09/17 07:01:16;;;;;;;60.47;38.50;;;15.20;99.90;;;;;;5031767;28;20214;-59
2021/09/17 07:03:43;;;;;;;59.10;35.97;;;15.30;70.80;;;;;;5031747;28;20578;-58
2021/09/17 07:06:11;;;;;;;55.17;35.67;;;15.40;47.00;;;;;;5031247;28;20714;-57
2021/09/17 07:08:37;;;;;;;56.67;36.07;;;15.40;77.50;;;;;;5031837;28;20217;-57
2021/09/17 07:11:04;;;;;;;53.30;34.93;;;15.40;59.70;;;;;;5031576;28;20210;-57
2021/09/17 07:13:31;;;;;;;58.07;35.07;;;15.40;1.00;;;;;;5031658;28;20260;-55
2021/09/17 07:15:57;;;;;;;56.47;36.50;;;15.40;1.00;;;;;;5031049;28;20226;-57
2021/09/17 07:18:24;;;;;;;57.67;34.30;;;15.30;1.00;;;;;;5032053;28;20213;-56
2021/09/17 07:20:51;;;;;;;52.57;35.17;;;15.30;1.00;;;;;;5031731;28;20207;-59
2021/09/17 07:23:19;;;;;;;54.07;33.17;;;15.40;1.00;;;;;;5031520;28;20237;-58
2021/09/17 07:25:46;;;;;;;50.67;34.10;;;15.50;1.00;;;;;;5031192;28;20202;-57
2021/09/17 07:28:13;;;;;;;52.47;33.37;;;15.60;1.00;;;;;;5031261;28;20252;-57
2021/09/17 07:30:40;;;;;;;49.47;31.43;;;15.80;99.90;;;;;;5031149;28;20257;-56
2021/09/17 07:33:06;;;;;;;43.57;30.27;;;15.90;15.20;;;;;;5031546;28;20210;-56
2021/09/17 07:35:33;;;;;;;45.40;30.07;;;16.10;1.00;;;;;;5030693;28;20698;-58
2021/09/17 07:38:01;;;;;;;46.70;30.67;;;16.20;99.90;;;;;;5031253;28;20264;-54
2021/09/17 07:40:30;;;;;;;45.50;30.07;;;16.20;99.90;;;;;;5031361;28;20637;-55
2021/09/17 07:42:57;;;;;;;42.10;29.57;;;16.40;73.80;;;;;;5031392;28;20235;-58
2021/09/17 07:45:24;;;;;;;43.73;29.20;;;16.50;1.00;;;;;;5030652;28;20213;-59
2021/09/17 07:47:51;;;;;;;48.10;29.70;;;16.60;99.90;;;;;;5031158;28;20734;-59
2021/09/17 07:50:19;;;;;;;41.37;28.47;;;16.70;99.90;;;;;;5031180;28;20240;-57
2021/09/17 07:52:46;;;;;;;46.60;29.27;;;16.80;99.90;;;;;;5031258;28;20211;-56
2021/09/17 07:55:13;;;;;;;47.07;30.57;;;16.90;1.00;;;;;;5030448;28;20280;-61
2021/09/17 07:57:41;;;;;;;42.73;28.93;;;17.00;99.90;;;;;;5030817;28;20227;-58
2021/09/17 08:00:11;;;;;;;41.97;28.30;;;16.90;1.00;;;;;;5031085;28;20221;-55
2021/09/17 08:02:38;;;;;;;41.70;29.37;;;17.00;1.00;;;;;;5031328;28;20206;-59
2021/09/17 08:05:06;;;;;;;42.67;29.10;;;17.10;93.60;;;;;;5030655;28;20198;-57
2021/09/17 08:07:32;;;;;;;41.40;27.43;;;17.20;99.90;;;;;;5030944;28;20229;-60
2021/09/17 08:09:59;;;;;;;36.77;26.83;;;17.30;99.90;;;;;;5031118;28;20222;-64
2021/09/17 08:12:26;;;;;;;32.73;22.43;;;17.30;99.90;;;;;;5030854;28;20214;-68
2021/09/17 08:14:54;;;;;;;37.07;25.87;;;17.50;26.70;;;;;;5034067;28;20598;-66
2021/09/17 08:17:20;;;;;;;36.87;24.33;;;17.60;99.90;;;;;;5034556;28;20229;-63
2021/09/17 08:19:47;;;;;;;36.20;23.53;;;17.60;1.00;;;;;;5034477;28;20213;-63
2021/09/17 08:22:14;;;;;;;39.63;26.20;;;17.70;1.00;;;;;;5034460;28;20644;-67
2021/09/17 08:24:40;;;;;;;40.93;26.00;;;17.80;99.90;;;;;;5044761;28;20197;-68
2021/09/17 08:27:07;;;;;;;38.73;26.60;;;17.80;99.90;;;;;;5613018;22;20234;-67
2021/09/17 08:29:34;;;;;;;37.70;25.40;;;17.80;99.90;;;;;;5054498;28;20840;-67
2021/09/17 08:32:02;;;;;;;37.97;26.03;;;17.80;1.00;;;;;;5054177;28;20649;-67
2021/09/17 08:34:30;;;;;;;35.90;25.73;;;17.70;93.10;;;;;;5053579;28;20248;-66
2021/09/17 08:36:56;;;;;;;34.60;24.20;;;17.80;99.90;;;;;;5041918;28;20234;-65
2021/09/17 08:39:23;;;;;;;39.07;25.53;;;17.80;1.00;;;;;;5034190;28;20210;-67
2021/09/17 08:41:50;;;;;;;34.03;25.07;;;17.70;1.00;;;;;;5053424;28;20206;-67
2021/09/17 08:44:16;;;;;;;33.23;23.73;;;17.80;99.90;;;;;;5053824;28;20214;-63
2021/09/17 08:46:44;;;;;;;38.87;25.03;;;17.90;2.00;;;;;;5053753;28;20321;-65
2021/09/17 08:49:12;;;;;;;37.60;24.63;;;18.00;1.00;;;;;;5054058;28;20209;-65
2021/09/17 08:51:39;;;;;;;37.20;24.23;;;18.20;1.00;;;;;;5053549;28;20209;-65
2021/09/17 08:54:06;;;;;;;36.93;24.30;;;18.30;1.00;;;;;;5053881;28;20217;-65
2021/09/17 08:56:34;;;;;;;34.97;22.70;;;18.40;99.90;;;;;;5053128;28;20236;-66
2021/09/17 08:59:01;;;;;;;37.77;22.80;;;18.60;99.90;;;;;;5054002;28;20213;-66
2021/09/17 09:01:29;;;;;;;31.70;21.00;;;18.80;99.90;;;;;;5053658;28;20217;-67
2021/09/17 09:03:59;;;;;;;28.63;21.33;;;18.90;93.00;;;;;;5053504;28;20225;-64
2021/09/17 09:06:28;;;;;;;33.37;19.70;;;18.90;74.60;;;;;;5052906;28;20229;-65
2021/09/17 09:08:55;;;;;;;30.43;19.87;;;18.90;60.60;;;;;;5053694;28;20267;-65
2021/09/17 09:11:25;;;;;;;28.63;20.53;;;18.80;1.00;;;;;;5053806;28;20212;-66
2021/09/17 09:14:07;;;;;;;36.37;22.17;;;18.60;1.00;;;;;;5053147;28;20285;-66
2021/09/17 09:16:36;;;;;;;31.50;21.07;;;18.50;21.10;;;;;;5053210;28;20615;-67
2021/09/17 09:19:28;;;;;;;32.90;21.07;;;18.50;10.00;;;;;;5053487;28;20652;-67
2021/09/17 09:22:11;;;;;;;35.63;23.47;;;18.70;99.90;;;;;;5034390;28;20201;-68
2021/09/17 09:24:40;;;;;;;35.47;23.47;;;18.90;99.90;;;;;;5052089;28;20923;-66
2021/09/17 09:27:10;;;;;;;35.00;22.17;;;18.90;42.10;;;;;;5052832;28;20229;-66
2021/09/17 09:29:37;;;;;;;33.53;23.03;;;19.10;1.00;;;;;;5052825;28;20563;-68
2021/09/17 09:32:04;;;;;;;36.27;23.10;;;19.30;11.20;;;;;;5053218;28;20205;-62
2021/09/17 09:34:52;;;;;;;36.93;22.50;;;19.50;1.00;;;;;;5052586;28;20209;-65
2021/09/17 09:37:21;;;;;;;37.90;23.03;;;19.40;1.00;;;;;;5052896;28;20728;-64
2021/09/17 09:39:59;;;;;;;38.17;24.37;;;19.40;1.00;;;;;;5052735;28;20208;-64
2021/09/17 09:42:34;;;;;;;42.27;24.73;;;19.20;1.00;;;;;;5053129;28;20720;-62
2021/09/17 09:45:18;;;;;;;35.40;22.43;;;19.30;1.00;;;;;;5052111;28;20660;-64
2021/09/17 09:47:49;;;;;;;33.53;22.47;;;19.50;1.00;;;;;;5052860;28;20320;-63
2021/09/17 09:50:18;;;;;;;37.03;22.93;;;19.70;1.00;;;;;;5052788;28;20821;-63
2021/09/17 09:52:46;;;;;;;37.83;24.27;;;19.80;1.00;;;;;;5053244;28;20658;-64
2021/09/17 09:55:13;;;;;;;36.33;24.23;;;19.60;1.00;;;;;;5052217;28;20232;-67
2021/09/17 09:57:42;;;;;;;39.57;23.33;;;19.60;1.00;;;;;;5053210;28;20291;-68
2021/09/17 10:00:11;;;;;;;34.03;22.07;;;19.70;1.00;;;;;;5053553;28;20296;-69
2021/09/17 10:02:38;;;;;;;33.83;22.20;;;19.90;1.00;;;;;;5052472;28;20588;-64
2021/09/17 10:05:06;;;;;;;36.07;24.07;;;20.10;1.00;;;;;;5052142;28;20209;-64
2021/09/17 10:07:33;;;;;;;34.63;22.97;;;19.90;1.00;;;;;;5052797;28;20229;-65
2021/09/17 10:10:01;;;;;;;34.03;22.23;;;20.00;1.00;;;;;;5052826;28;20205;-65
2021/09/17 10:12:28;;;;;;;30.07;20.43;;;20.00;1.00;;;;;;5052753;28;20214;-66
2021/09/17 10:14:56;;;;;;;29.90;18.83;;;20.00;1.00;;;;;;5051754;28;20241;-67
2021/09/17 10:17:26;;;;;;;28.47;20.13;;;20.00;1.00;;;;;;5052085;28;20316;-66
2021/09/17 10:19:53;;;;;;;25.63;18.27;;;19.80;1.00;;;;;;5052457;28;20634;-66
2021/09/17 10:22:32;;;;;;;25.63;17.40;;;19.90;1.00;;;;;;5052595;28;20241;-66
2021/09/17 10:25:15;;;;;;;22.50;15.30;;;20.00;1.00;;;;;;5051978;28;20209;-70
2021/09/17 10:30:18;;;;;;;18.77;14.27;;;20.10;1.00;;;;;;5032254;22;20284;-67
2021/09/17 10:32:48;;;;;;;17.50;13.93;;;20.20;1.00;;;;;;5032579;28;20589;-65
2021/09/17 10:35:18;;;;;;;19.50;13.07;;;20.20;1.00;;;;;;5031560;28;20228;-66
2021/09/17 10:37:57;;;;;;;20.57;14.13;;;20.40;1.00;;;;;;5031263;28;20230;-66
2021/09/17 10:40:38;;;;;;;16.73;11.80;;;20.20;1.00;;;;;;5032386;28;20218;-66
2021/09/17 10:43:20;;;;;;;19.70;12.20;;;20.30;1.00;;;;;;5031967;28;20202;-66
2021/09/17 10:51:05;;;;;;;15.33;11.60;;;20.50;1.00;;;;;;5159300;22;20237;-66
2021/09/17 10:54:03;;;;;;;14.13;9.53;;;20.50;1.00;;;;;;5031762;28;20202;-67
2021/09/17 10:57:02;;;;;;;16.50;10.67;;;20.60;1.00;;;;;;5031280;28;20648;-66
2021/09/17 10:59:41;;;;;;;15.70;10.13;;;20.40;1.00;;;;;;5031620;28;20256;-65
2021/09/17 11:02:09;;;;;;;16.03;11.47;;;20.40;1.00;;;;;;5031974;28;20210;-66
2021/09/17 11:04:37;;;;;;;17.83;11.43;;;20.50;1.00;;;;;;5031253;28;20213;-67
2021/09/17 11:07:33;;;;;;;18.10;12.57;;;20.20;1.00;;;;;;5031574;28;20226;-63
2021/09/17 11:10:01;;;;;;;17.77;13.93;;;20.30;1.00;;;;;;5031581;28;20228;-63
2021/09/17 11:12:31;;;;;;;21.90;13.10;;;20.30;1.00;;;;;;5031634;28;20208;-64
2021/09/17 11:15:04;;;;;;;19.97;12.53;;;20.30;1.00;;;;;;5030880;28;20210;-64
2021/09/17 11:17:42;;;;;;;17.53;13.07;;;20.60;1.00;;;;;;5031337;28;20249;-63
2021/09/17 11:20:11;;;;;;;19.97;14.30;;;20.60;1.00;;;;;;5031838;28;20202;-65
2021/09/17 11:22:57;;;;;;;22.50;14.13;;;20.50;1.00;;;;;;5031357;28;20202;-65
2021/09/17 11:25:27;;;;;;;20.97;12.97;;;20.40;1.00;;;;;;5031430;28;20205;-66
2021/09/17 11:27:55;;;;;;;22.20;14.17;;;20.60;1.00;;;;;;5030993;28;20737;-65
2021/09/17 11:30:23;;;;;;;22.73;13.97;;;20.60;1.00;;;;;;5031910;28;20214;-66
2021/09/17 11:32:50;;;;;;;19.23;13.80;;;20.70;1.00;;;;;;5031242;28;20210;-64
2021/09/17 11:35:17;;;;;;;18.03;12.83;;;20.70;1.00;;;;;;5030780;28;20230;-64
2021/09/17 11:37:52;;;;;;;19.80;12.83;;;20.80;1.00;;;;;;5031160;28;20233;-65
2021/09/17 11:40:19;;;;;;;19.47;14.00;;;20.80;1.00;;;;;;5031555;28;20205;-64
2021/09/17 11:42:46;;;;;;;20.10;15.67;;;20.90;1.00;;;;;;5031034;28;20679;-67
2021/09/17 11:45:16;;;;;;;21.80;15.30;;;20.90;1.00;;;;;;5040266;28;20291;-64
2021/09/17 11:47:48;;;;;;;19.83;15.13;;;20.90;1.00;;;;;;5051267;28;20229;-64
2021/09/17 11:50:15;;;;;;;20.00;14.67;;;21.30;1.00;;;;;;5054869;28;20744;-64
2021/09/17 11:52:45;;;;;;;23.90;15.90;;;21.60;1.00;;;;;;5055267;28;20329;-63
2021/09/17 11:55:14;;;;;;;19.23;14.63;;;21.60;1.00;;;;;;5053587;28;20322;-65
2021/09/17 11:57:43;;;;;;;21.83;15.03;;;21.70;1.00;;;;;;5055121;28;20225;-65
2021/09/17 12:00:12;;;;;;;24.47;17.40;;;21.80;1.00;;;;;;5054776;28;20209;-66
2021/09/17 12:02:40;;;;;;;19.17;13.47;;;21.80;1.00;;;;;;5054878;28;20669;-64
2021/09/17 12:05:09;;;;;;;18.90;13.40;;;21.70;1.00;;;;;;5054299;28;20228;-64
2021/09/17 12:07:37;;;;;;;17.00;12.80;;;21.90;1.00;;;;;;5054650;28;20600;-65
2021/09/17 12:10:13;;;;;;;18.53;14.13;;;21.80;1.00;;;;;;5054813;28;20210;-63
2021/09/17 12:12:41;;;;;;;16.23;12.40;;;21.40;1.00;;;;;;5054708;28;20205;-62
2021/09/17 12:15:09;;;;;;;15.50;12.20;;;21.30;1.00;;;;;;5053914;28;20622;-64
2021/09/17 12:17:52;;;;;;;15.23;12.37;;;21.30;1.00;;;;;;5052584;28;20237;-64
2021/09/17 12:20:19;;;;;;;17.60;11.97;;;21.40;1.00;;;;;;5054755;28;20530;-64
2021/09/17 12:22:55;;;;;;;16.33;12.60;;;21.50;1.00;;;;;;5054650;28;20214;-64
2021/09/17 12:25:28;;;;;;;18.93;11.47;;;21.50;1.00;;;;;;5054158;28;20632;-67
2021/09/17 12:27:58;;;;;;;14.93;11.67;;;21.50;1.00;;;;;;5054236;28;20259;-66
2021/09/17 12:30:27;;;;;;;17.70;13.40;;;21.50;1.00;;;;;;5054319;28;20214;-67
2021/09/17 12:33:07;;;;;;;16.03;11.07;;;21.70;1.00;;;;;;5054543;28;20231;-67
2021/09/17 12:35:35;;;;;;;17.40;11.97;;;21.90;1.00;;;;;;5053445;28;20224;-64
2021/09/17 12:38:03;;;;;;;16.93;11.50;;;21.80;1.00;;;;;;5054149;28;20209;-61
2021/09/17 12:40:32;;;;;;;17.03;11.80;;;22.00;1.00;;;;;;5054142;28;20238;-60
2021/09/17 12:43:00;;;;;;;15.97;11.23;;;22.00;1.00;;;;;;5053638;28;20274;-62
2021/09/17 12:45:27;;;;;;;16.10;11.20;;;22.20;1.00;;;;;;5052923;28;20724;-61
2021/09/17 12:47:56;;;;;;;18.07;13.47;;;22.20;1.00;;;;;;5053594;28;20682;-63